sensor_id;sensor_type;location;lat;lon;timestamp;temperature;humidity
4509;DHT22;2267;48.816;9.230;2022-11-20T00:01:16;8.50;99.90
4509;DHT22;2267;48.816;9.230;2022-11-20T00:03:43;8.50;99.90
4509;DHT22;2267;48.816;9.230;2022-11-20T00:06:13;8.50;99.90
4509;DHT22;2267;48.816;9.230;2022-11-20T00:08:40;8.60;99.90
4509;DHT22;2267;48.816;9.230;2022-11-20T00:11:09;8.50;99.90
4509;DHT22;2267;48.816;9.230;2022-11-20T00:13:41;8.50;99.90
4509;DHT22;2267;48.816;9.230;2022-11-20T00:16:10;8.50;99.90
4509;DHT22;2267;48.816;9.230;2022-11-20T00:18:37;8.50;99.90
4509;DHT22;2267;48.816;9.230;2022-11-20T00:21:06;8.60;99.90
4509;DHT22;2267;48.816;9.230;2022-11-20T00:23:34;8.60;99.90
4509;DHT22;2267;48.816;9.230;2022-11-20T00:26:03;8.50;99.90
4509;DHT22;2267;48.816;9.230;2022-11-20T00:28:30;8.50;99.90
4509;DHT22;2267;48.816;9.230;2022-11-20T00:31:05;8.50;99.90
4509;DHT22;2267;48.816;9.230;2022-11-20T00:33:32;8.50;99.90
4509;DHT22;2267;48.816;9.230;2022-11-20T00:36:04;8.50;99.90
4509;DHT22;2267;48.816;9.230;2022-11-20T00:38:32;8.50;99.90
4509;DHT22;2267;48.816;9.230;2022-11-20T00:41:01;8.50;99.90
4509;DHT22;2267;48.816;9.230;2022-11-20T00:43:28;8.50;99.90
4509;DHT22;2267;48.816;9.230;2022-11-20T00:45:59;8.50;99.90
4509;DHT22;2267;48.816;9.230;2022-11-20T00:48:26;8.50;99.90
4509;DHT22;2267;48.816;9.230;2022-11-20T00:50:53;8.50;99.90
4509;DHT22;2267;48.816;9.230;2022-11-20T00:53:21;8.50;99.90
4509;DHT22;2267;48.816;9.230;2022-11-20T00:55:58;8.50;99.90
4509;DHT22;2267;48.816;9.230;2022-11-20T00:58:29;8.50;99.90
4509;DHT22;2267;48.816;9.230;2022-11-20T01:01:06;8.50;99.90
4509;DHT22;2267;48.816;9.230;2022-11-20T01:03:35;8.40;99.90
4509;DHT22;2267;48.816;9.230;2022-11-20T01:06:05;8.40;99.90
4509;DHT22;2267;48.816;9.230;2022-11-20T01:08:33;8.40;99.90
4509;DHT22;2267;48.816;9.230;2022-11-20T01:11:02;8.50;99.90
4509;DHT22;2267;48.816;9.230;2022-11-20T01:13:30;8.40;99.90
4509;DHT22;2267;48.816;9.230;2022-11-20T01:16:13;8.40;99.90
4509;DHT22;2267;48.816;9.230;2022-11-20T01:18:42;8.50;99.90
4509;DHT22;2267;48.816;9.230;2022-11-20T01:21:16;8.40;99.90
4509;DHT22;2267;48.816;9.230;2022-11-20T01:23:44;8.40;99.90
4509;DHT22;2267;48.816;9.230;2022-11-20T01:26:14;8.40;99.90
4509;DHT22;2267;48.816;9.230;2022-11-20T01:28:42;8.40;99.90
4509;DHT22;2267;48.816;9.230;2022-11-20T01:31:19;8.40;99.90
4509;DHT22;2267;48.816;9.230;2022-11-20T01:33:48;8.40;99.90
4509;DHT22;2267;48.816;9.230;2022-11-20T01:36:16;8.40;99.90
4509;DHT22;2267;48.816;9.230;2022-11-20T01:38:43;8.40;99.90
4509;DHT22;2267;48.816;9.230;2022-11-20T01:41:12;8.40;99.90
4509;DHT22;2267;48.816;9.230;2022-11-20T01:44:04;8.40;99.90
4509;DHT22;2267;48.816;9.230;2022-11-20T01:46:32;8.40;99.90
4509;DHT22;2267;48.816;9.230;2022-11-20T01:54:42;8.30;99.90
4509;DHT22;2267;48.816;9.230;2022-11-20T01:57:12;8.30;99.90
4509;DHT22;2267;48.816;9.230;2022-11-20T01:59:44;8.30;99.90
4509;DHT22;2267;48.816;9.230;2022-11-20T02:02:14;8.30;99.90
4509;DHT22;2267;48.816;9.230;2022-11-20T02:04:41;8.30;99.90
4509;DHT22;2267;48.816;9.230;2022-11-20T02:07:08;8.30;99.90
4509;DHT22;2267;48.816;9.230;2022-11-20T02:09:35;8.30;99.90
4509;DHT22;2267;48.816;9.230;2022-11-20T02:12:03;8.30;99.90
4509;DHT22;2267;48.816;9.230;2022-11-20T02:14:30;8.30;99.90
4509;DHT22;2267;48.816;9.230;2022-11-20T02:16:57;8.30;99.90
4509;DHT22;2267;48.816;9.230;2022-11-20T02:19:29;8.30;99.90
4509;DHT22;2267;48.816;9.230;2022-11-20T02:22:12;8.30;99.90
4509;DHT22;2267;48.816;9.230;2022-11-20T02:24:41;8.30;99.90
4509;DHT22;2267;48.816;9.230;2022-11-20T02:27:12;8.30;99.90
4509;DHT22;2267;48.816;9.230;2022-11-20T02:29:44;8.30;99.90
4509;DHT22;2267;48.816;9.230;2022-11-20T02:32:29;8.30;99.90
4509;DHT22;2267;48.816;9.230;2022-11-20T02:34:56;8.30;99.90
4509;DHT22;2267;48.816;9.230;2022-11-20T02:37:29;8.30;99.90
4509;DHT22;2267;48.816;9.230;2022-11-20T02:39:57;8.30;99.90
4509;DHT22;2267;48.816;9.230;2022-11-20T02:42:24;8.30;99.90
4509;DHT22;2267;48.816;9.230;2022-11-20T02:44:50;8.30;99.90
4509;DHT22;2267;48.816;9.230;2022-11-20T02:47:17;8.30;99.90
4509;DHT22;2267;48.816;9.230;2022-11-20T02:49:44;8.30;99.90
4509;DHT22;2267;48.816;9.230;2022-11-20T02:52:10;8.30;99.90
4509;DHT22;2267;48.816;9.230;2022-11-20T02:54:37;8.30;99.90
4509;DHT22;2267;48.816;9.230;2022-11-20T02:57:04;8.30;99.90
4509;DHT22;2267;48.816;9.230;2022-11-20T02:59:31;8.30;99.90
4509;DHT22;2267;48.816;9.230;2022-11-20T03:01:58;8.30;99.90
4509;DHT22;2267;48.816;9.230;2022-11-20T03:04:24;8.30;99.90
4509;DHT22;2267;48.816;9.230;2022-11-20T03:06:51;8.30;99.90
4509;DHT22;2267;48.816;9.230;2022-11-20T03:09:18;8.30;99.90
4509;DHT22;2267;48.816;9.230;2022-11-20T03:11:45;8.30;99.90
4509;DHT22;2267;48.816;9.230;2022-11-20T03:14:12;8.40;99.90
4509;DHT22;2267;48.816;9.230;2022-11-20T03:16:39;8.30;99.90
4509;DHT22;2267;48.816;9.230;2022-11-20T03:19:05;8.40;99.90
4509;DHT22;2267;48.816;9.230;2022-11-20T03:21:35;8.40;99.90
4509;DHT22;2267;48.816;9.230;2022-11-20T03:24:02;8.40;99.90
4509;DHT22;2267;48.816;9.230;2022-11-20T03:26:30;8.40;99.90
4509;DHT22;2267;48.816;9.230;2022-11-20T03:28:59;8.40;99.90
4509;DHT22;2267;48.816;9.230;2022-11-20T03:31:29;8.30;99.90
4509;DHT22;2267;48.816;9.230;2022-11-20T03:33:57;8.30;99.90
4509;DHT22;2267;48.816;9.230;2022-11-20T03:36:25;8.30;99.90
4509;DHT22;2267;48.816;9.230;2022-11-20T03:38:54;8.30;99.90
4509;DHT22;2267;48.816;9.230;2022-11-20T03:41:23;8.30;99.90
4509;DHT22;2267;48.816;9.230;2022-11-20T03:43:52;8.30;99.90
4509;DHT22;2267;48.816;9.230;2022-11-20T03:46:20;8.30;99.90
4509;DHT22;2267;48.816;9.230;2022-11-20T03:48:47;8.30;99.90
4509;DHT22;2267;48.816;9.230;2022-11-20T03:51:22;8.30;99.90
4509;DHT22;2267;48.816;9.230;2022-11-20T03:53:51;8.30;99.90
4509;DHT22;2267;48.816;9.230;2022-11-20T03:56:23;8.30;99.90
4509;DHT22;2267;48.816;9.230;2022-11-20T03:58:50;8.30;99.90
4509;DHT22;2267;48.816;9.230;2022-11-20T04:01:20;8.20;99.90
4509;DHT22;2267;48.816;9.230;2022-11-20T04:03:47;8.30;99.90
4509;DHT22;2267;48.816;9.230;2022-11-20T04:06:18;8.30;99.90
4509;DHT22;2267;48.816;9.230;2022-11-20T04:08:45;8.30;99.90
4509;DHT22;2267;48.816;9.230;2022-11-20T04:11:21;8.30;99.90
4509;DHT22;2267;48.816;9.230;2022-11-20T04:13:57;8.30;99.90
4509;DHT22;2267;48.816;9.230;2022-11-20T04:16:25;8.30;99.90
4509;DHT22;2267;48.816;9.230;2022-11-20T04:18:57;8.20;99.90
4509;DHT22;2267;48.816;9.230;2022-11-20T04:21:25;8.20;99.90
4509;DHT22;2267;48.816;9.230;2022-11-20T04:23:53;8.20;99.90
4509;DHT22;2267;48.816;9.230;2022-11-20T04:26:22;8.20;99.90
4509;DHT22;2267;48.816;9.230;2022-11-20T04:28:49;8.30;99.90
4509;DHT22;2267;48.816;9.230;2022-11-20T04:31:18;8.30;99.90
4509;DHT22;2267;48.816;9.230;2022-11-20T04:33:46;8.30;99.90
4509;DHT22;2267;48.816;9.230;2022-11-20T04:36:15;8.30;99.90
4509;DHT22;2267;48.816;9.230;2022-11-20T04:38:43;8.30;99.90
4509;DHT22;2267;48.816;9.230;2022-11-20T04:41:15;8.30;99.90
4509;DHT22;2267;48.816;9.230;2022-11-20T04:43:47;8.30;99.90
4509;DHT22;2267;48.816;9.230;2022-11-20T04:46:19;8.30;99.90
4509;DHT22;2267;48.816;9.230;2022-11-20T04:48:47;8.30;99.90
4509;DHT22;2267;48.816;9.230;2022-11-20T04:51:14;8.30;99.90
4509;DHT22;2267;48.816;9.230;2022-11-20T04:53:41;8.30;99.90
4509;DHT22;2267;48.816;9.230;2022-11-20T04:56:10;8.30;99.90
4509;DHT22;2267;48.816;9.230;2022-11-20T04:58:38;8.30;99.90
4509;DHT22;2267;48.816;9.230;2022-11-20T05:01:12;8.30;99.90
4509;DHT22;2267;48.816;9.230;2022-11-20T05:03:40;8.30;99.90
4509;DHT22;2267;48.816;9.230;2022-11-20T05:06:09;8.30;99.90
4509;DHT22;2267;48.816;9.230;2022-11-20T05:08:37;8.30;99.90
4509;DHT22;2267;48.816;9.230;2022-11-20T05:11:06;8.30;99.90
4509;DHT22;2267;48.816;9.230;2022-11-20T05:13:34;8.20;99.90
4509;DHT22;2267;48.816;9.230;2022-11-20T05:16:05;8.20;99.90
4509;DHT22;2267;48.816;9.230;2022-11-20T05:18:34;8.20;99.90
4509;DHT22;2267;48.816;9.230;2022-11-20T05:21:01;8.20;99.90
4509;DHT22;2267;48.816;9.230;2022-11-20T05:23:29;8.20;99.90
4509;DHT22;2267;48.816;9.230;2022-11-20T05:25:57;8.20;99.90
4509;DHT22;2267;48.816;9.230;2022-11-20T05:28:26;8.20;99.90
4509;DHT22;2267;48.816;9.230;2022-11-20T05:30:52;8.20;99.90
4509;DHT22;2267;48.816;9.230;2022-11-20T05:33:19;8.20;99.90
4509;DHT22;2267;48.816;9.230;2022-11-20T05:35:46;8.20;99.90
4509;DHT22;2267;48.816;9.230;2022-11-20T05:38:14;8.20;99.90
4509;DHT22;2267;48.816;9.230;2022-11-20T05:40:41;8.30;99.90
4509;DHT22;2267;48.816;9.230;2022-11-20T05:43:08;8.20;99.90
4509;DHT22;2267;48.816;9.230;2022-11-20T05:45:35;8.30;99.90
4509;DHT22;2267;48.816;9.230;2022-11-20T05:48:02;8.20;99.90
4509;DHT22;2267;48.816;9.230;2022-11-20T05:50:29;8.20;99.90
4509;DHT22;2267;48.816;9.230;2022-11-20T05:53:00;8.20;99.90
4509;DHT22;2267;48.816;9.230;2022-11-20T05:55:27;8.20;99.90
4509;DHT22;2267;48.816;9.230;2022-11-20T05:57:54;8.20;99.90
4509;DHT22;2267;48.816;9.230;2022-11-20T06:00:22;8.20;99.90
4509;DHT22;2267;48.816;9.230;2022-11-20T06:02:48;8.20;99.90
4509;DHT22;2267;48.816;9.230;2022-11-20T06:05:15;8.20;99.90
4509;DHT22;2267;48.816;9.230;2022-11-20T06:07:42;8.20;99.90
4509;DHT22;2267;48.816;9.230;2022-11-20T06:10:10;8.20;99.90
4509;DHT22;2267;48.816;9.230;2022-11-20T06:12:37;8.20;99.90
4509;DHT22;2267;48.816;9.230;2022-11-20T06:15:05;8.20;99.90
4509;DHT22;2267;48.816;9.230;2022-11-20T06:17:32;8.30;99.90
4509;DHT22;2267;48.816;9.230;2022-11-20T06:19:58;8.30;99.90
4509;DHT22;2267;48.816;9.230;2022-11-20T06:22:25;8.30;99.90
4509;DHT22;2267;48.816;9.230;2022-11-20T06:24:52;8.30;99.90
4509;DHT22;2267;48.816;9.230;2022-11-20T06:27:19;8.20;99.90
4509;DHT22;2267;48.816;9.230;2022-11-20T06:29:46;8.30;99.90
4509;DHT22;2267;48.816;9.230;2022-11-20T06:32:12;8.30;99.90
4509;DHT22;2267;48.816;9.230;2022-11-20T06:34:39;8.30;99.90
4509;DHT22;2267;48.816;9.230;2022-11-20T06:37:06;8.30;99.90
4509;DHT22;2267;48.816;9.230;2022-11-20T06:39:33;8.30;99.90
4509;DHT22;2267;48.816;9.230;2022-11-20T06:41:59;8.30;99.90
4509;DHT22;2267;48.816;9.230;2022-11-20T06:44:26;8.30;99.90
4509;DHT22;2267;48.816;9.230;2022-11-20T06:46:53;8.30;99.90
4509;DHT22;2267;48.816;9.230;2022-11-20T06:49:19;8.20;99.90
4509;DHT22;2267;48.816;9.230;2022-11-20T06:51:47;8.20;99.90
4509;DHT22;2267;48.816;9.230;2022-11-20T06:54:13;8.20;99.90
4509;DHT22;2267;48.816;9.230;2022-11-20T06:56:40;8.20;99.90
4509;DHT22;2267;48.816;9.230;2022-11-20T06:59:07;8.20;99.90
4509;DHT22;2267;48.816;9.230;2022-11-20T07:01:34;8.30;99.90
4509;DHT22;2267;48.816;9.230;2022-11-20T07:04:01;8.20;99.90
4509;DHT22;2267;48.816;9.230;2022-11-20T07:06:29;8.30;99.90
4509;DHT22;2267;48.816;9.230;2022-11-20T07:08:56;8.20;99.90
4509;DHT22;2267;48.816;9.230;2022-11-20T07:11:23;8.30;99.90
4509;DHT22;2267;48.816;9.230;2022-11-20T07:13:50;8.30;99.90
4509;DHT22;2267;48.816;9.230;2022-11-20T07:16:17;8.30;99.90
4509;DHT22;2267;48.816;9.230;2022-11-20T07:18:44;8.30;99.90
4509;DHT22;2267;48.816;9.230;2022-11-20T07:21:16;8.30;99.90
4509;DHT22;2267;48.816;9.230;2022-11-20T07:23:43;8.30;99.90
4509;DHT22;2267;48.816;9.230;2022-11-20T07:26:10;8.30;99.90
4509;DHT22;2267;48.816;9.230;2022-11-20T07:28:38;8.30;99.90
4509;DHT22;2267;48.816;9.230;2022-11-20T07:31:05;8.30;99.90
4509;DHT22;2267;48.816;9.230;2022-11-20T07:33:33;8.30;99.90
4509;DHT22;2267;48.816;9.230;2022-11-20T07:36:00;8.30;99.90
4509;DHT22;2267;48.816;9.230;2022-11-20T07:38:28;8.30;99.90
4509;DHT22;2267;48.816;9.230;2022-11-20T07:40:58;8.30;99.90
4509;DHT22;2267;48.816;9.230;2022-11-20T07:43:28;8.30;99.90
4509;DHT22;2267;48.816;9.230;2022-11-20T07:45:56;8.30;99.90
4509;DHT22;2267;48.816;9.230;2022-11-20T07:48:23;8.40;99.90
4509;DHT22;2267;48.816;9.230;2022-11-20T07:50:53;8.40;99.90
4509;DHT22;2267;48.816;9.230;2022-11-20T07:53:21;8.40;99.90
4509;DHT22;2267;48.816;9.230;2022-11-20T07:55:48;8.40;99.90
4509;DHT22;2267;48.816;9.230;2022-11-20T07:58:15;8.40;99.90
4509;DHT22;2267;48.816;9.230;2022-11-20T08:00:41;8.50;99.90
4509;DHT22;2267;48.816;9.230;2022-11-20T08:03:08;8.50;99.90
4509;DHT22;2267;48.816;9.230;2022-11-20T08:05:35;8.50;99.90
4509;DHT22;2267;48.816;9.230;2022-11-20T08:08:02;8.50;99.90
4509;DHT22;2267;48.816;9.230;2022-11-20T08:10:28;8.40;99.90
4509;DHT22;2267;48.816;9.230;2022-11-20T08:12:55;8.50;99.90
4509;DHT22;2267;48.816;9.230;2022-11-20T08:15:41;8.40;99.90
4509;DHT22;2267;48.816;9.230;2022-11-20T08:18:09;8.40;99.90
4509;DHT22;2267;48.816;9.230;2022-11-20T08:21:02;8.40;99.90
4509;DHT22;2267;48.816;9.230;2022-11-20T08:23:28;8.40;99.90
4509;DHT22;2267;48.816;9.230;2022-11-20T08:25:55;8.50;99.90
4509;DHT22;2267;48.816;9.230;2022-11-20T08:28:22;8.50;99.90
4509;DHT22;2267;48.816;9.230;2022-11-20T08:30:49;8.40;99.90
4509;DHT22;2267;48.816;9.230;2022-11-20T08:33:17;8.50;99.90
4509;DHT22;2267;48.816;9.230;2022-11-20T08:35:44;8.50;99.90
4509;DHT22;2267;48.816;9.230;2022-11-20T08:38:11;8.50;99.90
4509;DHT22;2267;48.816;9.230;2022-11-20T08:40:38;8.60;99.90
4509;DHT22;2267;48.816;9.230;2022-11-20T08:43:05;8.60;99.90
4509;DHT22;2267;48.816;9.230;2022-11-20T08:45:32;8.60;99.90
4509;DHT22;2267;48.816;9.230;2022-11-20T08:48:04;8.60;99.90
4509;DHT22;2267;48.816;9.230;2022-11-20T08:50:31;8.70;99.90
4509;DHT22;2267;48.816;9.230;2022-11-20T08:53:04;8.70;99.90
4509;DHT22;2267;48.816;9.230;2022-11-20T08:55:31;8.70;99.90
4509;DHT22;2267;48.816;9.230;2022-11-20T08:58:02;8.80;99.90
4509;DHT22;2267;48.816;9.230;2022-11-20T09:00:29;8.80;99.90
4509;DHT22;2267;48.816;9.230;2022-11-20T09:02:56;8.90;99.90
4509;DHT22;2267;48.816;9.230;2022-11-20T09:05:25;8.90;99.90
4509;DHT22;2267;48.816;9.230;2022-11-20T09:07:51;8.90;99.90
4509;DHT22;2267;48.816;9.230;2022-11-20T09:10:18;8.90;99.90
4509;DHT22;2267;48.816;9.230;2022-11-20T09:12:50;8.90;99.90
4509;DHT22;2267;48.816;9.230;2022-11-20T09:15:18;9.00;99.90
4509;DHT22;2267;48.816;9.230;2022-11-20T09:20:18;9.00;99.90
4509;DHT22;2267;48.816;9.230;2022-11-20T09:22:45;9.00;99.90
4509;DHT22;2267;48.816;9.230;2022-11-20T09:25:12;9.10;99.90
4509;DHT22;2267;48.816;9.230;2022-11-20T09:27:39;9.10;99.90
4509;DHT22;2267;48.816;9.230;2022-11-20T09:30:08;9.10;99.90
4509;DHT22;2267;48.816;9.230;2022-11-20T09:32:35;9.10;99.90
4509;DHT22;2267;48.816;9.230;2022-11-20T09:35:02;9.10;99.90
4509;DHT22;2267;48.816;9.230;2022-11-20T09:37:29;9.10;99.90
4509;DHT22;2267;48.816;9.230;2022-11-20T09:39:55;9.10;99.90
4509;DHT22;2267;48.816;9.230;2022-11-20T09:45:13;9.10;99.90
4509;DHT22;2267;48.816;9.230;2022-11-20T09:55:45;9.20;99.90
4509;DHT22;2267;48.816;9.230;2022-11-20T09:58:21;9.10;99.90
4509;DHT22;2267;48.816;9.230;2022-11-20T10:00:52;9.10;99.90
4509;DHT22;2267;48.816;9.230;2022-11-20T10:04:04;9.10;99.90
4509;DHT22;2267;48.816;9.230;2022-11-20T10:06:37;9.10;99.90
4509;DHT22;2267;48.816;9.230;2022-11-20T10:19:47;9.10;99.90
4509;DHT22;2267;48.816;9.230;2022-11-20T10:25:47;9.10;99.90
4509;DHT22;2267;48.816;9.230;2022-11-20T10:28:33;9.10;99.90
4509;DHT22;2267;48.816;9.230;2022-11-20T10:31:08;9.10;99.90
4509;DHT22;2267;48.816;9.230;2022-11-20T10:33:40;9.10;99.90
4509;DHT22;2267;48.816;9.230;2022-11-20T10:36:36;9.10;99.90
4509;DHT22;2267;48.816;9.230;2022-11-20T10:41:51;9.00;99.90
4509;DHT22;2267;48.816;9.230;2022-11-20T10:44:27;9.00;99.90
4509;DHT22;2267;48.816;9.230;2022-11-20T10:47:18;9.00;99.90
4509;DHT22;2267;48.816;9.230;2022-11-20T10:49:53;8.90;99.90
4509;DHT22;2267;48.816;9.230;2022-11-20T10:55:07;8.90;99.90
4509;DHT22;2267;48.816;9.230;2022-11-20T11:00:12;8.90;99.90
4509;DHT22;2267;48.816;9.230;2022-11-20T11:02:47;9.00;99.90
4509;DHT22;2267;48.816;9.230;2022-11-20T11:05:22;9.00;99.90
4509;DHT22;2267;48.816;9.230;2022-11-20T11:07:55;9.00;99.90
4509;DHT22;2267;48.816;9.230;2022-11-20T11:12:54;9.10;99.90
4509;DHT22;2267;48.816;9.230;2022-11-20T11:15:35;9.10;99.90
4509;DHT22;2267;48.816;9.230;2022-11-20T11:18:03;9.10;99.90
4509;DHT22;2267;48.816;9.230;2022-11-20T11:20:30;9.10;99.90
4509;DHT22;2267;48.816;9.230;2022-11-20T11:22:59;9.10;99.90
4509;DHT22;2267;48.816;9.230;2022-11-20T11:25:34;9.10;99.90
4509;DHT22;2267;48.816;9.230;2022-11-20T11:30:44;9.10;99.90
4509;DHT22;2267;48.816;9.230;2022-11-20T11:33:29;9.10;99.90
4509;DHT22;2267;48.816;9.230;2022-11-20T11:35:59;9.20;99.90
4509;DHT22;2267;48.816;9.230;2022-11-20T11:38:38;9.30;99.90
4509;DHT22;2267;48.816;9.230;2022-11-20T11:41:12;9.60;99.90
4509;DHT22;2267;48.816;9.230;2022-11-20T11:43:40;9.80;99.90
4509;DHT22;2267;48.816;9.230;2022-11-20T11:46:35;10.10;99.90
4509;DHT22;2267;48.816;9.230;2022-11-20T11:52:02;10.60;99.90
4509;DHT22;2267;48.816;9.230;2022-11-20T11:57:26;11.20;99.90
4509;DHT22;2267;48.816;9.230;2022-11-20T12:03:05;11.50;99.90
4509;DHT22;2267;48.816;9.230;2022-11-20T12:08:36;11.90;99.90
4509;DHT22;2267;48.816;9.230;2022-11-20T12:11:15;11.90;99.90
4509;DHT22;2267;48.816;9.230;2022-11-20T12:14:00;12.10;99.90
4509;DHT22;2267;48.816;9.230;2022-11-20T12:16:35;12.30;99.90
4509;DHT22;2267;48.816;9.230;2022-11-20T12:19:08;12.30;99.90
4509;DHT22;2267;48.816;9.230;2022-11-20T12:27:27;12.60;99.90
4509;DHT22;2267;48.816;9.230;2022-11-20T12:30:20;12.90;99.90
4509;DHT22;2267;48.816;9.230;2022-11-20T12:36:12;13.10;99.90
4509;DHT22;2267;48.816;9.230;2022-11-20T12:41:57;13.30;99.30
4509;DHT22;2267;48.816;9.230;2022-11-20T12:45:14;13.40;99.00
4509;DHT22;2267;48.816;9.230;2022-11-20T12:54:08;13.30;98.10
4509;DHT22;2267;48.816;9.230;2022-11-20T13:02:28;13.10;98.20
4509;DHT22;2267;48.816;9.230;2022-11-20T13:07:24;13.40;97.90
4509;DHT22;2267;48.816;9.230;2022-11-20T13:09:53;13.40;97.70
4509;DHT22;2267;48.816;9.230;2022-11-20T13:12:44;13.20;96.80
4509;DHT22;2267;48.816;9.230;2022-11-20T13:15:35;13.10;97.20
4509;DHT22;2267;48.816;9.230;2022-11-20T13:18:09;13.00;97.20
4509;DHT22;2267;48.816;9.230;2022-11-20T13:20:42;12.80;97.30
4509;DHT22;2267;48.816;9.230;2022-11-20T13:23:09;12.70;97.20
4509;DHT22;2267;48.816;9.230;2022-11-20T13:25:38;12.60;97.30
4509;DHT22;2267;48.816;9.230;2022-11-20T13:28:29;12.60;96.80
4509;DHT22;2267;48.816;9.230;2022-11-20T13:30:57;12.40;96.60
4509;DHT22;2267;48.816;9.230;2022-11-20T13:33:33;12.30;97.00
4509;DHT22;2267;48.816;9.230;2022-11-20T13:36:25;12.30;96.50
4509;DHT22;2267;48.816;9.230;2022-11-20T13:38:55;12.40;96.10
4509;DHT22;2267;48.816;9.230;2022-11-20T13:41:33;12.40;96.10
4509;DHT22;2267;48.816;9.230;2022-11-20T13:44:45;12.40;95.00
4509;DHT22;2267;48.816;9.230;2022-11-20T13:47:21;12.50;94.80
4509;DHT22;2267;48.816;9.230;2022-11-20T13:49:49;12.80;94.90
4509;DHT22;2267;48.816;9.230;2022-11-20T13:52:45;12.80;93.70
4509;DHT22;2267;48.816;9.230;2022-11-20T14:01:06;12.40;94.50
4509;DHT22;2267;48.816;9.230;2022-11-20T14:03:35;12.20;94.40
4509;DHT22;2267;48.816;9.230;2022-11-20T14:06:27;12.00;94.30
4509;DHT22;2267;48.816;9.230;2022-11-20T14:08:56;11.80;94.50
4509;DHT22;2267;48.816;9.230;2022-11-20T14:11:28;11.70;95.10
4509;DHT22;2267;48.816;9.230;2022-11-20T14:16:32;11.50;95.70
4509;DHT22;2267;48.816;9.230;2022-11-20T14:21:52;11.40;96.40
4509;DHT22;2267;48.816;9.230;2022-11-20T14:24:24;11.40;96.80
4509;DHT22;2267;48.816;9.230;2022-11-20T14:26:51;11.40;96.90
4509;DHT22;2267;48.816;9.230;2022-11-20T14:29:22;11.30;97.00
4509;DHT22;2267;48.816;9.230;2022-11-20T14:31:54;11.30;97.70
4509;DHT22;2267;48.816;9.230;2022-11-20T14:34:27;11.20;97.40
4509;DHT22;2267;48.816;9.230;2022-11-20T14:37:06;11.20;97.70
4509;DHT22;2267;48.816;9.230;2022-11-20T14:39:48;11.10;98.00
4509;DHT22;2267;48.816;9.230;2022-11-20T14:42:27;11.10;98.20
4509;DHT22;2267;48.816;9.230;2022-11-20T14:44:57;11.10;98.30
4509;DHT22;2267;48.816;9.230;2022-11-20T14:47:28;11.10;98.30
4509;DHT22;2267;48.816;9.230;2022-11-20T14:49:57;11.00;98.50
4509;DHT22;2267;48.816;9.230;2022-11-20T14:52:26;11.00;98.70
4509;DHT22;2267;48.816;9.230;2022-11-20T14:54:56;10.90;98.70
4509;DHT22;2267;48.816;9.230;2022-11-20T15:02:42;10.90;99.10
4509;DHT22;2267;48.816;9.230;2022-11-20T15:05:10;10.80;99.10
4509;DHT22;2267;48.816;9.230;2022-11-20T15:07:45;10.80;99.20
4509;DHT22;2267;48.816;9.230;2022-11-20T15:12:49;10.80;99.40
4509;DHT22;2267;48.816;9.230;2022-11-20T15:17:50;10.70;99.20
4509;DHT22;2267;48.816;9.230;2022-11-20T15:20:17;10.70;99.20
4509;DHT22;2267;48.816;9.230;2022-11-20T15:22:44;10.60;99.30
4509;DHT22;2267;48.816;9.230;2022-11-20T15:25:15;10.60;99.20
4509;DHT22;2267;48.816;9.230;2022-11-20T15:27:43;10.60;99.20
4509;DHT22;2267;48.816;9.230;2022-11-20T15:30:16;10.50;99.10
4509;DHT22;2267;48.816;9.230;2022-11-20T15:32:45;10.50;99.10
4509;DHT22;2267;48.816;9.230;2022-11-20T15:35:13;10.40;98.80
4509;DHT22;2267;48.816;9.230;2022-11-20T15:37:41;10.40;99.00
4509;DHT22;2267;48.816;9.230;2022-11-20T15:40:09;10.40;99.40
4509;DHT22;2267;48.816;9.230;2022-11-20T15:42:36;10.40;99.70
4509;DHT22;2267;48.816;9.230;2022-11-20T15:45:03;10.30;99.50
4509;DHT22;2267;48.816;9.230;2022-11-20T15:47:33;10.30;99.50
4509;DHT22;2267;48.816;9.230;2022-11-20T15:50:02;10.30;99.50
4509;DHT22;2267;48.816;9.230;2022-11-20T15:52:29;10.30;99.50
4509;DHT22;2267;48.816;9.230;2022-11-20T15:55:11;10.20;99.50
4509;DHT22;2267;48.816;9.230;2022-11-20T15:57:37;10.20;99.70
4509;DHT22;2267;48.816;9.230;2022-11-20T16:00:05;10.10;99.60
4509;DHT22;2267;48.816;9.230;2022-11-20T16:02:32;10.10;99.80
4509;DHT22;2267;48.816;9.230;2022-11-20T16:05:00;10.10;99.90
4509;DHT22;2267;48.816;9.230;2022-11-20T16:07:27;10.10;99.90
4509;DHT22;2267;48.816;9.230;2022-11-20T16:09:54;10.10;99.90
4509;DHT22;2267;48.816;9.230;2022-11-20T16:12:23;10.00;99.90
4509;DHT22;2267;48.816;9.230;2022-11-20T16:15:09;10.00;99.90
4509;DHT22;2267;48.816;9.230;2022-11-20T16:17:54;10.00;99.90
4509;DHT22;2267;48.816;9.230;2022-11-20T16:20:21;10.00;99.90
4509;DHT22;2267;48.816;9.230;2022-11-20T16:22:49;10.00;99.90
4509;DHT22;2267;48.816;9.230;2022-11-20T16:25:16;10.00;99.90
4509;DHT22;2267;48.816;9.230;2022-11-20T16:27:43;10.00;99.90
4509;DHT22;2267;48.816;9.230;2022-11-20T16:30:11;9.90;99.90
4509;DHT22;2267;48.816;9.230;2022-11-20T16:32:38;9.90;99.90
4509;DHT22;2267;48.816;9.230;2022-11-20T16:35:05;9.90;99.90
4509;DHT22;2267;48.816;9.230;2022-11-20T16:37:34;9.90;99.90
4509;DHT22;2267;48.816;9.230;2022-11-20T16:40:01;9.90;99.90
4509;DHT22;2267;48.816;9.230;2022-11-20T16:42:29;9.90;99.90
4509;DHT22;2267;48.816;9.230;2022-11-20T16:44:59;9.80;99.90
4509;DHT22;2267;48.816;9.230;2022-11-20T16:47:26;9.80;99.90
4509;DHT22;2267;48.816;9.230;2022-11-20T16:49:53;9.80;99.90
4509;DHT22;2267;48.816;9.230;2022-11-20T16:52:20;9.80;99.90
4509;DHT22;2267;48.816;9.230;2022-11-20T16:54:47;9.80;99.90
4509;DHT22;2267;48.816;9.230;2022-11-20T16:57:15;9.80;99.90
4509;DHT22;2267;48.816;9.230;2022-11-20T16:59:42;9.80;99.90
4509;DHT22;2267;48.816;9.230;2022-11-20T17:02:10;9.80;99.90
4509;DHT22;2267;48.816;9.230;2022-11-20T17:04:37;9.80;99.90
4509;DHT22;2267;48.816;9.230;2022-11-20T17:07:04;9.80;99.90
4509;DHT22;2267;48.816;9.230;2022-11-20T17:09:33;9.80;99.90
4509;DHT22;2267;48.816;9.230;2022-11-20T17:12:01;9.80;99.90
4509;DHT22;2267;48.816;9.230;2022-11-20T17:14:28;9.80;99.90
4509;DHT22;2267;48.816;9.230;2022-11-20T17:16:55;9.80;99.90
4509;DHT22;2267;48.816;9.230;2022-11-20T17:19:22;9.70;99.90
4509;DHT22;2267;48.816;9.230;2022-11-20T17:21:49;9.80;99.90
4509;DHT22;2267;48.816;9.230;2022-11-20T17:24:20;9.80;99.90
4509;DHT22;2267;48.816;9.230;2022-11-20T17:26:47;9.70;99.90
4509;DHT22;2267;48.816;9.230;2022-11-20T17:29:17;9.70;99.90
4509;DHT22;2267;48.816;9.230;2022-11-20T17:31:44;9.70;99.90
4509;DHT22;2267;48.816;9.230;2022-11-20T17:34:13;9.70;99.90
4509;DHT22;2267;48.816;9.230;2022-11-20T17:36:41;9.70;99.90
4509;DHT22;2267;48.816;9.230;2022-11-20T17:39:12;9.70;99.90
4509;DHT22;2267;48.816;9.230;2022-11-20T17:41:40;9.70;99.90
4509;DHT22;2267;48.816;9.230;2022-11-20T17:44:11;9.70;99.90
4509;DHT22;2267;48.816;9.230;2022-11-20T17:46:38;9.70;99.90
4509;DHT22;2267;48.816;9.230;2022-11-20T17:49:05;9.70;99.90
4509;DHT22;2267;48.816;9.230;2022-11-20T17:51:33;9.70;99.90
4509;DHT22;2267;48.816;9.230;2022-11-20T17:54:03;9.70;99.90
4509;DHT22;2267;48.816;9.230;2022-11-20T17:56:32;9.70;99.90
4509;DHT22;2267;48.816;9.230;2022-11-20T17:59:18;9.70;99.90
4509;DHT22;2267;48.816;9.230;2022-11-20T18:01:45;9.70;99.90
4509;DHT22;2267;48.816;9.230;2022-11-20T18:04:13;9.70;99.90
4509;DHT22;2267;48.816;9.230;2022-11-20T18:06:41;9.70;99.90
4509;DHT22;2267;48.816;9.230;2022-11-20T18:09:08;9.70;99.90
4509;DHT22;2267;48.816;9.230;2022-11-20T18:11:38;9.70;99.90
4509;DHT22;2267;48.816;9.230;2022-11-20T18:14:09;9.70;99.90
4509;DHT22;2267;48.816;9.230;2022-11-20T18:16:57;9.60;99.90
4509;DHT22;2267;48.816;9.230;2022-11-20T18:19:27;9.60;99.90
4509;DHT22;2267;48.816;9.230;2022-11-20T18:21:59;9.60;99.90